sensor_id;sensor_type;location;lat;lon;timestamp;P1;durP1;ratioP1;P2;durP2;ratioP2
19877;SDS011;10101;52.204;9.910;2023-03-05T00:01:50;5.33;;;1.27;;
19877;SDS011;10101;52.204;9.910;2023-03-05T00:04:16;6.90;;;1.50;;
19877;SDS011;10101;52.204;9.910;2023-03-05T00:06:43;5.10;;;1.47;;
19877;SDS011;10101;52.204;9.910;2023-03-05T00:09:10;6.97;;;1.63;;
19877;SDS011;10101;52.204;9.910;2023-03-05T00:11:37;5.43;;;1.20;;
19877;SDS011;10101;52.204;9.910;2023-03-05T00:14:04;4.93;;;1.50;;
19877;SDS011;10101;52.204;9.910;2023-03-05T00:16:31;4.53;;;1.70;;
19877;SDS011;10101;52.204;9.910;2023-03-05T00:19:00;5.73;;;1.27;;
19877;SDS011;10101;52.204;9.910;2023-03-05T00:21:27;7.27;;;1.30;;
19877;SDS011;10101;52.204;9.910;2023-03-05T00:23:56;6.43;;;1.67;;
19877;SDS011;10101;52.204;9.910;2023-03-05T00:26:26;6.93;;;1.40;;
19877;SDS011;10101;52.204;9.910;2023-03-05T00:28:54;4.73;;;1.50;;
19877;SDS011;10101;52.204;9.910;2023-03-05T00:31:22;5.87;;;1.47;;
19877;SDS011;10101;52.204;9.910;2023-03-05T00:33:51;5.87;;;1.33;;
19877;SDS011;10101;52.204;9.910;2023-03-05T00:36:19;7.93;;;1.60;;
19877;SDS011;10101;52.204;9.910;2023-03-05T00:38:46;3.43;;;1.30;;
19877;SDS011;10101;52.204;9.910;2023-03-05T00:41:13;7.17;;;1.30;;
19877;SDS011;10101;52.204;9.910;2023-03-05T00:43:40;5.47;;;1.37;;
19877;SDS011;10101;52.204;9.910;2023-03-05T00:46:07;3.17;;;1.00;;
19877;SDS011;10101;52.204;9.910;2023-03-05T00:48:33;4.30;;;1.33;;
19877;SDS011;10101;52.204;9.910;2023-03-05T00:51:01;4.13;;;1.27;;
19877;SDS011;10101;52.204;9.910;2023-03-05T00:53:29;7.43;;;1.60;;
19877;SDS011;10101;52.204;9.910;2023-03-05T00:55:56;4.30;;;1.20;;
19877;SDS011;10101;52.204;9.910;2023-03-05T00:58:23;3.93;;;1.27;;
19877;SDS011;10101;52.204;9.910;2023-03-05T01:00:50;6.00;;;1.40;;
19877;SDS011;10101;52.204;9.910;2023-03-05T01:03:17;6.43;;;1.60;;
19877;SDS011;10101;52.204;9.910;2023-03-05T01:05:43;5.07;;;1.33;;
19877;SDS011;10101;52.204;9.910;2023-03-05T01:08:10;7.53;;;1.53;;
19877;SDS011;10101;52.204;9.910;2023-03-05T01:10:38;5.70;;;1.40;;
19877;SDS011;10101;52.204;9.910;2023-03-05T01:13:05;4.60;;;1.30;;
19877;SDS011;10101;52.204;9.910;2023-03-05T01:15:31;14.10;;;1.63;;
19877;SDS011;10101;52.204;9.910;2023-03-05T01:17:58;4.80;;;1.30;;
19877;SDS011;10101;52.204;9.910;2023-03-05T01:20:25;7.57;;;1.70;;
19877;SDS011;10101;52.204;9.910;2023-03-05T01:22:52;5.90;;;1.27;;
19877;SDS011;10101;52.204;9.910;2023-03-05T01:25:19;7.00;;;1.63;;
19877;SDS011;10101;52.204;9.910;2023-03-05T01:27:47;3.33;;;1.10;;
19877;SDS011;10101;52.204;9.910;2023-03-05T01:30:14;4.33;;;1.37;;
19877;SDS011;10101;52.204;9.910;2023-03-05T01:32:41;5.53;;;1.40;;
19877;SDS011;10101;52.204;9.910;2023-03-05T01:35:08;7.83;;;1.57;;
19877;SDS011;10101;52.204;9.910;2023-03-05T01:37:40;5.43;;;1.43;;
19877;SDS011;10101;52.204;9.910;2023-03-05T01:40:07;7.10;;;1.27;;
19877;SDS011;10101;52.204;9.910;2023-03-05T01:42:35;3.47;;;1.20;;
19877;SDS011;10101;52.204;9.910;2023-03-05T01:45:05;3.73;;;1.23;;
19877;SDS011;10101;52.204;9.910;2023-03-05T01:47:36;7.37;;;1.83;;
19877;SDS011;10101;52.204;9.910;2023-03-05T01:50:03;5.97;;;1.43;;
19877;SDS011;10101;52.204;9.910;2023-03-05T01:52:32;5.13;;;1.67;;
19877;SDS011;10101;52.204;9.910;2023-03-05T01:55:03;4.10;;;1.40;;
19877;SDS011;10101;52.204;9.910;2023-03-05T01:57:32;6.50;;;1.33;;
19877;SDS011;10101;52.204;9.910;2023-03-05T02:00:06;3.20;;;1.27;;
19877;SDS011;10101;52.204;9.910;2023-03-05T02:02:35;5.30;;;1.37;;
19877;SDS011;10101;52.204;9.910;2023-03-05T02:05:03;3.57;;;1.53;;
19877;SDS011;10101;52.204;9.910;2023-03-05T02:07:35;5.67;;;1.80;;
19877;SDS011;10101;52.204;9.910;2023-03-05T02:10:13;4.60;;;1.60;;
19877;SDS011;10101;52.204;9.910;2023-03-05T02:12:41;6.73;;;1.70;;
19877;SDS011;10101;52.204;9.910;2023-03-05T02:15:10;9.23;;;2.00;;
19877;SDS011;10101;52.204;9.910;2023-03-05T02:17:37;3.13;;;1.57;;
19877;SDS011;10101;52.204;9.910;2023-03-05T02:20:05;4.90;;;2.10;;
19877;SDS011;10101;52.204;9.910;2023-03-05T02:22:35;4.87;;;1.90;;
19877;SDS011;10101;52.204;9.910;2023-03-05T02:25:10;8.50;;;2.33;;
19877;SDS011;10101;52.204;9.910;2023-03-05T02:27:39;5.90;;;2.03;;
19877;SDS011;10101;52.204;9.910;2023-03-05T02:30:11;6.50;;;2.00;;
19877;SDS011;10101;52.204;9.910;2023-03-05T02:32:38;4.10;;;1.63;;
19877;SDS011;10101;52.204;9.910;2023-03-05T02:35:05;6.87;;;2.10;;
19877;SDS011;10101;52.204;9.910;2023-03-05T02:37:32;10.07;;;2.10;;
19877;SDS011;10101;52.204;9.910;2023-03-05T02:40:00;6.13;;;2.00;;
19877;SDS011;10101;52.204;9.910;2023-03-05T02:42:27;9.00;;;1.90;;
19877;SDS011;10101;52.204;9.910;2023-03-05T02:44:57;8.50;;;1.80;;
19877;SDS011;10101;52.204;9.910;2023-03-05T02:47:24;6.40;;;1.97;;
19877;SDS011;10101;52.204;9.910;2023-03-05T02:49:51;4.07;;;1.53;;
19877;SDS011;10101;52.204;9.910;2023-03-05T02:52:18;5.37;;;1.70;;
19877;SDS011;10101;52.204;9.910;2023-03-05T02:54:45;8.63;;;1.70;;
19877;SDS011;10101;52.204;9.910;2023-03-05T02:57:13;6.10;;;1.77;;
19877;SDS011;10101;52.204;9.910;2023-03-05T02:59:39;6.63;;;2.23;;
19877;SDS011;10101;52.204;9.910;2023-03-05T03:02:06;8.50;;;1.87;;
19877;SDS011;10101;52.204;9.910;2023-03-05T03:04:33;3.93;;;1.57;;
19877;SDS011;10101;52.204;9.910;2023-03-05T03:06:59;7.10;;;1.90;;
19877;SDS011;10101;52.204;9.910;2023-03-05T03:09:26;7.83;;;2.47;;
19877;SDS011;10101;52.204;9.910;2023-03-05T03:11:53;6.60;;;1.70;;
19877;SDS011;10101;52.204;9.910;2023-03-05T03:14:22;3.30;;;1.60;;
19877;SDS011;10101;52.204;9.910;2023-03-05T03:16:49;3.93;;;1.47;;
19877;SDS011;10101;52.204;9.910;2023-03-05T03:19:15;7.57;;;1.60;;
19877;SDS011;10101;52.204;9.910;2023-03-05T03:21:42;7.00;;;2.03;;
19877;SDS011;10101;52.204;9.910;2023-03-05T03:24:09;7.53;;;1.70;;
19877;SDS011;10101;52.204;9.910;2023-03-05T03:26:36;5.40;;;1.80;;
19877;SDS011;10101;52.204;9.910;2023-03-05T03:29:02;4.00;;;1.50;;
19877;SDS011;10101;52.204;9.910;2023-03-05T03:31:30;4.53;;;1.43;;
19877;SDS011;10101;52.204;9.910;2023-03-05T03:33:57;5.07;;;1.70;;
19877;SDS011;10101;52.204;9.910;2023-03-05T03:36:24;7.30;;;1.77;;
19877;SDS011;10101;52.204;9.910;2023-03-05T03:38:51;4.97;;;1.67;;
19877;SDS011;10101;52.204;9.910;2023-03-05T03:41:17;3.43;;;1.57;;
19877;SDS011;10101;52.204;9.910;2023-03-05T03:43:44;2.83;;;1.43;;
19877;SDS011;10101;52.204;9.910;2023-03-05T03:46:11;4.20;;;1.37;;
19877;SDS011;10101;52.204;9.910;2023-03-05T03:48:39;3.00;;;1.83;;
19877;SDS011;10101;52.204;9.910;2023-03-05T03:51:06;2.60;;;1.23;;
19877;SDS011;10101;52.204;9.910;2023-03-05T03:53:33;3.93;;;1.23;;
19877;SDS011;10101;52.204;9.910;2023-03-05T03:56:00;4.07;;;1.33;;
19877;SDS011;10101;52.204;9.910;2023-03-05T03:58:28;6.57;;;1.27;;
19877;SDS011;10101;52.204;9.910;2023-03-05T04:00:55;3.37;;;1.40;;
19877;SDS011;10101;52.204;9.910;2023-03-05T04:03:22;3.40;;;1.90;;
19877;SDS011;10101;52.204;9.910;2023-03-05T04:05:50;5.87;;;1.70;;
19877;SDS011;10101;52.204;9.910;2023-03-05T04:08:19;5.30;;;1.83;;
19877;SDS011;10101;52.204;9.910;2023-03-05T04:10:46;5.33;;;1.70;;
19877;SDS011;10101;52.204;9.910;2023-03-05T04:13:13;4.07;;;1.60;;
19877;SDS011;10101;52.204;9.910;2023-03-05T04:15:40;4.57;;;1.93;;
19877;SDS011;10101;52.204;9.910;2023-03-05T04:18:06;3.67;;;1.27;;
19877;SDS011;10101;52.204;9.910;2023-03-05T04:20:34;2.53;;;1.20;;
19877;SDS011;10101;52.204;9.910;2023-03-05T04:23:02;5.23;;;1.57;;
19877;SDS011;10101;52.204;9.910;2023-03-05T04:25:29;3.70;;;1.27;;
19877;SDS011;10101;52.204;9.910;2023-03-05T04:27:56;4.13;;;1.50;;
19877;SDS011;10101;52.204;9.910;2023-03-05T04:30:22;2.70;;;1.30;;
19877;SDS011;10101;52.204;9.910;2023-03-05T04:32:49;1.90;;;1.30;;
19877;SDS011;10101;52.204;9.910;2023-03-05T04:35:16;5.47;;;1.53;;
19877;SDS011;10101;52.204;9.910;2023-03-05T04:37:43;9.77;;;1.80;;
19877;SDS011;10101;52.204;9.910;2023-03-05T04:40:11;2.87;;;1.50;;
19877;SDS011;10101;52.204;9.910;2023-03-05T04:42:38;3.10;;;1.20;;
19877;SDS011;10101;52.204;9.910;2023-03-05T04:45:06;2.63;;;1.30;;
19877;SDS011;10101;52.204;9.910;2023-03-05T04:47:33;5.83;;;1.30;;
19877;SDS011;10101;52.204;9.910;2023-03-05T04:50:00;5.93;;;1.30;;
19877;SDS011;10101;52.204;9.910;2023-03-05T04:52:27;2.13;;;1.20;;
19877;SDS011;10101;52.204;9.910;2023-03-05T04:54:54;2.60;;;1.40;;
19877;SDS011;10101;52.204;9.910;2023-03-05T04:57:22;5.40;;;1.67;;
19877;SDS011;10101;52.204;9.910;2023-03-05T04:59:49;5.40;;;1.13;;
19877;SDS011;10101;52.204;9.910;2023-03-05T05:02:15;3.30;;;1.80;;
19877;SDS011;10101;52.204;9.910;2023-03-05T05:04:42;5.80;;;1.50;;
19877;SDS011;10101;52.204;9.910;2023-03-05T05:07:10;4.23;;;1.43;;
19877;SDS011;10101;52.204;9.910;2023-03-05T05:09:37;3.37;;;1.80;;
19877;SDS011;10101;52.204;9.910;2023-03-05T05:12:05;5.40;;;1.73;;
19877;SDS011;10101;52.204;9.910;2023-03-05T05:14:34;6.20;;;1.70;;
19877;SDS011;10101;52.204;9.910;2023-03-05T05:17:00;3.47;;;1.33;;
19877;SDS011;10101;52.204;9.910;2023-03-05T05:19:29;3.70;;;1.63;;
19877;SDS011;10101;52.204;9.910;2023-03-05T05:21:55;5.17;;;1.93;;
19877;SDS011;10101;52.204;9.910;2023-03-05T05:24:22;6.33;;;1.70;;
19877;SDS011;10101;52.204;9.910;2023-03-05T05:26:49;3.67;;;1.63;;
19877;SDS011;10101;52.204;9.910;2023-03-05T05:29:16;2.57;;;1.43;;
19877;SDS011;10101;52.204;9.910;2023-03-05T05:31:44;4.10;;;1.43;;
19877;SDS011;10101;52.204;9.910;2023-03-05T05:34:11;3.67;;;1.60;;
19877;SDS011;10101;52.204;9.910;2023-03-05T05:36:37;3.10;;;1.43;;
19877;SDS011;10101;52.204;9.910;2023-03-05T05:39:04;4.27;;;1.40;;
19877;SDS011;10101;52.204;9.910;2023-03-05T05:41:31;5.30;;;1.73;;
19877;SDS011;10101;52.204;9.910;2023-03-05T05:43:58;3.70;;;1.53;;
19877;SDS011;10101;52.204;9.910;2023-03-05T05:46:24;3.30;;;1.50;;
19877;SDS011;10101;52.204;9.910;2023-03-05T05:48:54;2.20;;;1.33;;
19877;SDS011;10101;52.204;9.910;2023-03-05T05:51:21;4.80;;;1.57;;
19877;SDS011;10101;52.204;9.910;2023-03-05T05:53:49;2.00;;;1.50;;
19877;SDS011;10101;52.204;9.910;2023-03-05T05:56:16;2.47;;;1.57;;
19877;SDS011;10101;52.204;9.910;2023-03-05T05:58:43;7.67;;;1.90;;
19877;SDS011;10101;52.204;9.910;2023-03-05T06:01:12;6.20;;;1.40;;
19877;SDS011;10101;52.204;9.910;2023-03-05T06:03:41;3.57;;;1.47;;
19877;SDS011;10101;52.204;9.910;2023-03-05T06:06:10;5.13;;;1.50;;
19877;SDS011;10101;52.204;9.910;2023-03-05T06:08:37;2.63;;;1.23;;
19877;SDS011;10101;52.204;9.910;2023-03-05T06:11:04;5.20;;;1.20;;
19877;SDS011;10101;52.204;9.910;2023-03-05T06:13:31;3.30;;;1.47;;
19877;SDS011;10101;52.204;9.910;2023-03-05T06:15:59;6.93;;;1.60;;
19877;SDS011;10101;52.204;9.910;2023-03-05T06:18:27;1.93;;;1.50;;
19877;SDS011;10101;52.204;9.910;2023-03-05T06:20:54;2.87;;;1.30;;
19877;SDS011;10101;52.204;9.910;2023-03-05T06:23:23;5.40;;;1.40;;
19877;SDS011;10101;52.204;9.910;2023-03-05T06:25:51;2.43;;;1.10;;
19877;SDS011;10101;52.204;9.910;2023-03-05T06:28:18;4.67;;;1.33;;
19877;SDS011;10101;52.204;9.910;2023-03-05T06:30:45;3.53;;;1.30;;
19877;SDS011;10101;52.204;9.910;2023-03-05T06:33:12;2.37;;;1.17;;
19877;SDS011;10101;52.204;9.910;2023-03-05T06:35:39;3.40;;;1.20;;
19877;SDS011;10101;52.204;9.910;2023-03-05T06:38:07;3.40;;;1.10;;
19877;SDS011;10101;52.204;9.910;2023-03-05T06:40:37;4.23;;;1.50;;
19877;SDS011;10101;52.204;9.910;2023-03-05T06:43:04;5.23;;;1.57;;
19877;SDS011;10101;52.204;9.910;2023-03-05T06:45:31;4.23;;;1.10;;
19877;SDS011;10101;52.204;9.910;2023-03-05T06:47:58;2.80;;;1.40;;
19877;SDS011;10101;52.204;9.910;2023-03-05T06:50:24;4.83;;;1.50;;
19877;SDS011;10101;52.204;9.910;2023-03-05T06:52:51;5.30;;;1.70;;
19877;SDS011;10101;52.204;9.910;2023-03-05T06:55:18;1.70;;;1.40;;
19877;SDS011;10101;52.204;9.910;2023-03-05T06:57:46;6.17;;;1.57;;
19877;SDS011;10101;52.204;9.910;2023-03-05T07:00:13;7.03;;;2.00;;
19877;SDS011;10101;52.204;9.910;2023-03-05T07:02:40;6.23;;;1.53;;
19877;SDS011;10101;52.204;9.910;2023-03-05T07:05:07;5.97;;;1.60;;
19877;SDS011;10101;52.204;9.910;2023-03-05T07:07:34;2.67;;;1.87;;
19877;SDS011;10101;52.204;9.910;2023-03-05T07:10:01;7.23;;;1.80;;
19877;SDS011;10101;52.204;9.910;2023-03-05T07:12:31;7.13;;;1.53;;
19877;SDS011;10101;52.204;9.910;2023-03-05T07:15:01;4.00;;;1.90;;
19877;SDS011;10101;52.204;9.910;2023-03-05T07:17:29;4.07;;;1.80;;
19877;SDS011;10101;52.204;9.910;2023-03-05T07:19:57;3.80;;;2.03;;
19877;SDS011;10101;52.204;9.910;2023-03-05T07:22:24;3.20;;;1.83;;
19877;SDS011;10101;52.204;9.910;2023-03-05T07:24:52;8.70;;;2.40;;
19877;SDS011;10101;52.204;9.910;2023-03-05T07:27:23;4.23;;;2.03;;
19877;SDS011;10101;52.204;9.910;2023-03-05T07:29:50;4.07;;;1.80;;
19877;SDS011;10101;52.204;9.910;2023-03-05T07:32:18;2.00;;;1.60;;
19877;SDS011;10101;52.204;9.910;2023-03-05T07:34:45;4.03;;;1.80;;
19877;SDS011;10101;52.204;9.910;2023-03-05T07:37:12;6.07;;;2.30;;
19877;SDS011;10101;52.204;9.910;2023-03-05T07:39:39;4.47;;;2.10;;
19877;SDS011;10101;52.204;9.910;2023-03-05T07:42:06;3.67;;;1.80;;
19877;SDS011;10101;52.204;9.910;2023-03-05T07:44:33;3.50;;;1.50;;
19877;SDS011;10101;52.204;9.910;2023-03-05T07:46:59;3.63;;;1.47;;
19877;SDS011;10101;52.204;9.910;2023-03-05T07:49:27;1.70;;;1.30;;
19877;SDS011;10101;52.204;9.910;2023-03-05T07:51:54;7.97;;;1.90;;
19877;SDS011;10101;52.204;9.910;2023-03-05T07:54:21;4.10;;;1.20;;
19877;SDS011;10101;52.204;9.910;2023-03-05T07:56:48;2.43;;;1.67;;
19877;SDS011;10101;52.204;9.910;2023-03-05T07:59:14;2.57;;;1.27;;
19877;SDS011;10101;52.204;9.910;2023-03-05T08:01:41;2.50;;;1.30;;
19877;SDS011;10101;52.204;9.910;2023-03-05T08:04:09;4.93;;;1.10;;
19877;SDS011;10101;52.204;9.910;2023-03-05T08:06:39;4.97;;;1.30;;
19877;SDS011;10101;52.204;9.910;2023-03-05T08:09:07;4.10;;;1.10;;
19877;SDS011;10101;52.204;9.910;2023-03-05T08:11:34;1.50;;;1.03;;
19877;SDS011;10101;52.204;9.910;2023-03-05T08:14:00;4.90;;;1.00;;
19877;SDS011;10101;52.204;9.910;2023-03-05T08:16:28;1.97;;;1.30;;
19877;SDS011;10101;52.204;9.910;2023-03-05T08:18:55;1.33;;;0.87;;
19877;SDS011;10101;52.204;9.910;2023-03-05T08:21:24;2.97;;;1.20;;
19877;SDS011;10101;52.204;9.910;2023-03-05T08:23:55;1.60;;;1.00;;
19877;SDS011;10101;52.204;9.910;2023-03-05T08:26:23;0.87;;;0.80;;
19877;SDS011;10101;52.204;9.910;2023-03-05T08:28:51;2.57;;;0.90;;
19877;SDS011;10101;52.204;9.910;2023-03-05T08:31:19;1.30;;;1.20;;
19877;SDS011;10101;52.204;9.910;2023-03-05T08:33:48;1.53;;;1.13;;
19877;SDS011;10101;52.204;9.910;2023-03-05T08:36:15;2.50;;;1.10;;
19877;SDS011;10101;52.204;9.910;2023-03-05T08:38:42;4.17;;;1.63;;
19877;SDS011;10101;52.204;9.910;2023-03-05T08:41:12;1.73;;;1.00;;
19877;SDS011;10101;52.204;9.910;2023-03-05T08:43:39;3.83;;;1.03;;
19877;SDS011;10101;52.204;9.910;2023-03-05T08:46:06;3.70;;;0.80;;
19877;SDS011;10101;52.204;9.910;2023-03-05T08:48:33;1.50;;;0.93;;
19877;SDS011;10101;52.204;9.910;2023-03-05T08:51:03;3.27;;;1.00;;
19877;SDS011;10101;52.204;9.910;2023-03-05T08:53:31;1.33;;;0.93;;
19877;SDS011;10101;52.204;9.910;2023-03-05T08:55:58;1.23;;;0.90;;
19877;SDS011;10101;52.204;9.910;2023-03-05T08:58:27;2.40;;;0.80;;
19877;SDS011;10101;52.204;9.910;2023-03-05T09:00:54;3.17;;;1.10;;
19877;SDS011;10101;52.204;9.910;2023-03-05T09:03:21;4.13;;;1.60;;
19877;SDS011;10101;52.204;9.910;2023-03-05T09:05:48;6.03;;;1.30;;
19877;SDS011;10101;52.204;9.910;2023-03-05T09:08:15;5.20;;;2.17;;
19877;SDS011;10101;52.204;9.910;2023-03-05T09:10:42;4.43;;;1.07;;
19877;SDS011;10101;52.204;9.910;2023-03-05T09:13:10;2.83;;;1.07;;
19877;SDS011;10101;52.204;9.910;2023-03-05T09:15:39;2.83;;;1.10;;
19877;SDS011;10101;52.204;9.910;2023-03-05T09:18:06;9.43;;;4.50;;
19877;SDS011;10101;52.204;9.910;2023-03-05T09:20:33;3.03;;;1.10;;
19877;SDS011;10101;52.204;9.910;2023-03-05T09:23:01;3.00;;;1.10;;
19877;SDS011;10101;52.204;9.910;2023-03-05T09:25:28;4.83;;;1.40;;
19877;SDS011;10101;52.204;9.910;2023-03-05T09:27:55;2.63;;;1.13;;
19877;SDS011;10101;52.204;9.910;2023-03-05T09:30:22;2.30;;;1.10;;
19877;SDS011;10101;52.204;9.910;2023-03-05T09:32:51;3.17;;;1.40;;
19877;SDS011;10101;52.204;9.910;2023-03-05T09:35:17;1.77;;;0.80;;
19877;SDS011;10101;52.204;9.910;2023-03-05T09:37:44;2.60;;;0.80;;
19877;SDS011;10101;52.204;9.910;2023-03-05T09:40:12;4.37;;;1.20;;
19877;SDS011;10101;52.204;9.910;2023-03-05T09:45:31;3.47;;;1.20;;
19877;SDS011;10101;52.204;9.910;2023-03-05T09:48:08;4.13;;;1.13;;
19877;SDS011;10101;52.204;9.910;2023-03-05T09:50:42;3.00;;;0.90;;
19877;SDS011;10101;52.204;9.910;2023-03-05T09:53:17;3.27;;;1.00;;
19877;SDS011;10101;52.204;9.910;2023-03-05T09:55:49;0.90;;;0.80;;
19877;SDS011;10101;52.204;9.910;2023-03-05T09:58:18;2.10;;;0.87;;
19877;SDS011;10101;52.204;9.910;2023-03-05T10:00:50;3.40;;;1.00;;
19877;SDS011;10101;52.204;9.910;2023-03-05T10:03:23;2.03;;;1.20;;
19877;SDS011;10101;52.204;9.910;2023-03-05T10:05:55;3.63;;;1.00;;
19877;SDS011;10101;52.204;9.910;2023-03-05T10:08:28;4.70;;;1.10;;
19877;SDS011;10101;52.204;9.910;2023-03-05T10:11:04;2.43;;;1.17;;
19877;SDS011;10101;52.204;9.910;2023-03-05T10:13:37;2.17;;;0.70;;
19877;SDS011;10101;52.204;9.910;2023-03-05T10:16:12;2.60;;;1.13;;
19877;SDS011;10101;52.204;9.910;2023-03-05T10:18:56;5.00;;;1.20;;
19877;SDS011;10101;52.204;9.910;2023-03-05T10:21:30;1.20;;;0.93;;
19877;SDS011;10101;52.204;9.910;2023-03-05T10:24:08;3.20;;;1.00;;
19877;SDS011;10101;52.204;9.910;2023-03-05T10:26:45;1.00;;;0.80;;
19877;SDS011;10101;52.204;9.910;2023-03-05T10:29:30;3.37;;;0.90;;
19877;SDS011;10101;52.204;9.910;2023-03-05T10:32:11;2.80;;;1.00;;
19877;SDS011;10101;52.204;9.910;2023-03-05T10:34:52;2.47;;;0.97;;
19877;SDS011;10101;52.204;9.910;2023-03-05T10:37:52;1.00;;;0.93;;
19877;SDS011;10101;52.204;9.910;2023-03-05T10:40:30;2.40;;;1.13;;
19877;SDS011;10101;52.204;9.910;2023-03-05T10:43:06;1.77;;;1.00;;
19877;SDS011;10101;52.204;9.910;2023-03-05T10:45:46;1.27;;;0.97;;
19877;SDS011;10101;52.204;9.910;2023-03-05T10:48:20;3.53;;;1.40;;
19877;SDS011;10101;52.204;9.910;2023-03-05T10:50:56;4.57;;;0.97;;
19877;SDS011;10101;52.204;9.910;2023-03-05T10:53:27;1.00;;;0.83;;
19877;SDS011;10101;52.204;9.910;2023-03-05T10:55:59;1.80;;;1.13;;
19877;SDS011;10101;52.204;9.910;2023-03-05T10:58:27;2.30;;;1.10;;
19877;SDS011;10101;52.204;9.910;2023-03-05T11:00:58;3.30;;;1.73;;
19877;SDS011;10101;52.204;9.910;2023-03-05T11:03:35;3.33;;;1.10;;
19877;SDS011;10101;52.204;9.910;2023-03-05T11:06:13;2.57;;;0.90;;
19877;SDS011;10101;52.204;9.910;2023-03-05T11:08:41;2.17;;;1.10;;
19877;SDS011;10101;52.204;9.910;2023-03-05T11:11:12;0.80;;;0.80;;
19877;SDS011;10101;52.204;9.910;2023-03-05T11:13:49;3.40;;;1.10;;
19877;SDS011;10101;52.204;9.910;2023-03-05T11:16:19;1.37;;;0.80;;
19877;SDS011;10101;52.204;9.910;2023-03-05T11:18:48;3.50;;;0.90;;
19877;SDS011;10101;52.204;9.910;2023-03-05T11:21:20;3.03;;;0.90;;
19877;SDS011;10101;52.204;9.910;2023-03-05T11:24:04;1.33;;;1.00;;
19877;SDS011;10101;52.204;9.910;2023-03-05T11:26:37;2.43;;;1.00;;
19877;SDS011;10101;52.204;9.910;2023-03-05T11:29:15;3.10;;;0.90;;
19877;SDS011;10101;52.204;9.910;2023-03-05T11:31:44;1.80;;;0.87;;
19877;SDS011;10101;52.204;9.910;2023-03-05T11:34:20;3.57;;;1.03;;
19877;SDS011;10101;52.204;9.910;2023-03-05T11:36:59;3.03;;;0.80;;
19877;SDS011;10101;52.204;9.910;2023-03-05T11:39:29;3.07;;;1.17;;
19877;SDS011;10101;52.204;9.910;2023-03-05T11:41:59;2.17;;;1.00;;
19877;SDS011;10101;52.204;9.910;2023-03-05T11:44:28;3.60;;;1.50;;
19877;SDS011;10101;52.204;9.910;2023-03-05T11:47:00;2.77;;;1.80;;
19877;SDS011;10101;52.204;9.910;2023-03-05T11:49:30;2.10;;;1.00;;
19877;SDS011;10101;52.204;9.910;2023-03-05T11:52:00;2.40;;;1.13;;
19877;SDS011;10101;52.204;9.910;2023-03-05T11:54:34;2.80;;;0.90;;
19877;SDS011;10101;52.204;9.910;2023-03-05T11:57:07;4.73;;;1.30;;
19877;SDS011;10101;52.204;9.910;2023-03-05T11:59:38;2.40;;;1.10;;
19877;SDS011;10101;52.204;9.910;2023-03-05T12:02:12;3.63;;;1.00;;
19877;SDS011;10101;52.204;9.910;2023-03-05T12:04:42;2.57;;;1.00;;
19877;SDS011;10101;52.204;9.910;2023-03-05T12:07:11;1.93;;;0.90;;
19877;SDS011;10101;52.204;9.910;2023-03-05T12:09:43;3.43;;;1.10;;
19877;SDS011;10101;52.204;9.910;2023-03-05T12:12:17;2.93;;;0.97;;
19877;SDS011;10101;52.204;9.910;2023-03-05T12:14:56;1.57;;;0.73;;
19877;SDS011;10101;52.204;9.910;2023-03-05T12:17:30;2.50;;;0.80;;
19877;SDS011;10101;52.204;9.910;2023-03-05T12:20:04;2.53;;;0.73;;
19877;SDS011;10101;52.204;9.910;2023-03-05T12:22:39;3.43;;;0.70;;
19877;SDS011;10101;52.204;9.910;2023-03-05T12:25:25;1.53;;;0.90;;
19877;SDS011;10101;52.204;9.910;2023-03-05T12:27:53;1.57;;;0.80;;
19877;SDS011;10101;52.204;9.910;2023-03-05T12:33:28;0.60;;;0.60;;
19877;SDS011;10101;52.204;9.910;2023-03-05T12:39:00;1.63;;;0.80;;
19877;SDS011;10101;52.204;9.910;2023-03-05T12:45:28;2.17;;;0.90;;
19877;SDS011;10101;52.204;9.910;2023-03-05T12:51:10;2.63;;;0.73;;
19877;SDS011;10101;52.204;9.910;2023-03-05T12:53:39;2.67;;;0.80;;
19877;SDS011;10101;52.204;9.910;2023-03-05T12:56:12;0.73;;;0.70;;
19877;SDS011;10101;52.204;9.910;2023-03-05T12:58:46;3.43;;;0.80;;
19877;SDS011;10101;52.204;9.910;2023-03-05T13:04:00;2.87;;;0.90;;
19877;SDS011;10101;52.204;9.910;2023-03-05T13:06:35;3.23;;;1.03;;
19877;SDS011;10101;52.204;9.910;2023-03-05T13:09:06;1.30;;;0.90;;
19877;SDS011;10101;52.204;9.910;2023-03-05T13:11:40;0.93;;;0.57;;
19877;SDS011;10101;52.204;9.910;2023-03-05T13:14:22;2.13;;;0.90;;
19877;SDS011;10101;52.204;9.910;2023-03-05T13:16:53;3.87;;;0.90;;
19877;SDS011;10101;52.204;9.910;2023-03-05T13:19:20;3.80;;;0.70;;
19877;SDS011;10101;52.204;9.910;2023-03-05T13:21:55;0.60;;;0.60;;
19877;SDS011;10101;52.204;9.910;2023-03-05T13:24:23;2.37;;;0.60;;
19877;SDS011;10101;52.204;9.910;2023-03-05T13:26:51;1.53;;;0.40;;
19877;SDS011;10101;52.204;9.910;2023-03-05T13:29:19;1.57;;;0.90;;
19877;SDS011;10101;52.204;9.910;2023-03-05T13:31:48;2.60;;;0.80;;
19877;SDS011;10101;52.204;9.910;2023-03-05T13:34:17;0.83;;;0.60;;
19877;SDS011;10101;52.204;9.910;2023-03-05T13:36:47;1.00;;;0.60;;
19877;SDS011;10101;52.204;9.910;2023-03-05T13:39:19;3.43;;;0.80;;
19877;SDS011;10101;52.204;9.910;2023-03-05T13:41:56;0.63;;;0.60;;
19877;SDS011;10101;52.204;9.910;2023-03-05T13:44:25;0.60;;;0.60;;
19877;SDS011;10101;52.204;9.910;2023-03-05T13:47:05;2.87;;;0.60;;
19877;SDS011;10101;52.204;9.910;2023-03-05T13:49:33;0.97;;;0.60;;
19877;SDS011;10101;52.204;9.910;2023-03-05T13:52:02;0.80;;;0.60;;
19877;SDS011;10101;52.204;9.910;2023-03-05T13:54:30;2.40;;;0.60;;
19877;SDS011;10101;52.204;9.910;2023-03-05T13:56:59;2.00;;;0.70;;
19877;SDS011;10101;52.204;9.910;2023-03-05T13:59:29;1.33;;;0.73;;
19877;SDS011;10101;52.204;9.910;2023-03-05T14:01:58;0.60;;;0.60;;
19877;SDS011;10101;52.204;9.910;2023-03-05T14:04:26;0.50;;;0.50;;
19877;SDS011;10101;52.204;9.910;2023-03-05T14:06:58;0.87;;;0.60;;
19877;SDS011;10101;52.204;9.910;2023-03-05T14:09:29;0.50;;;0.50;;
19877;SDS011;10101;52.204;9.910;2023-03-05T14:12:01;0.77;;;0.60;;
19877;SDS011;10101;52.204;9.910;2023-03-05T14:14:33;2.00;;;0.40;;
19877;SDS011;10101;52.204;9.910;2023-03-05T14:17:20;0.50;;;0.50;;
19877;SDS011;10101;52.204;9.910;2023-03-05T14:20:08;2.47;;;0.67;;
19877;SDS011;10101;52.204;9.910;2023-03-05T14:22:45;1.33;;;0.60;;
19877;SDS011;10101;52.204;9.910;2023-03-05T14:25:24;1.33;;;0.43;;
19877;SDS011;10101;52.204;9.910;2023-03-05T14:28:01;0.90;;;0.60;;
19877;SDS011;10101;52.204;9.910;2023-03-05T14:30:32;3.40;;;0.70;;
19877;SDS011;10101;52.204;9.910;2023-03-05T14:33:01;1.87;;;0.90;;
19877;SDS011;10101;52.204;9.910;2023-03-05T14:35:29;0.63;;;0.60;;
19877;SDS011;10101;52.204;9.910;2023-03-05T14:37:56;1.90;;;0.60;;
19877;SDS011;10101;52.204;9.910;2023-03-05T14:40:27;0.67;;;0.60;;
19877;SDS011;10101;52.204;9.910;2023-03-05T14:42:56;2.63;;;0.50;;
19877;SDS011;10101;52.204;9.910;2023-03-05T14:45:26;3.30;;;0.67;;
19877;SDS011;10101;52.204;9.910;2023-03-05T14:47:56;0.50;;;0.50;;
19877;SDS011;10101;52.204;9.910;2023-03-05T14:50:25;1.13;;;0.60;;
19877;SDS011;10101;52.204;9.910;2023-03-05T14:52:54;3.23;;;0.83;;
19877;SDS011;10101;52.204;9.910;2023-03-05T14:55:23;2.47;;;0.90;;
19877;SDS011;10101;52.204;9.910;2023-03-05T14:57:51;0.47;;;0.47;;
19877;SDS011;10101;52.204;9.910;2023-03-05T15:00:24;0.70;;;0.50;;
19877;SDS011;10101;52.204;9.910;2023-03-05T15:02:53;2.40;;;1.23;;
19877;SDS011;10101;52.204;9.910;2023-03-05T15:05:21;1.80;;;0.73;;
19877;SDS011;10101;52.204;9.910;2023-03-05T15:07:48;0.70;;;0.57;;
19877;SDS011;10101;52.204;9.910;2023-03-05T15:10:16;3.07;;;0.87;;
19877;SDS011;10101;52.204;9.910;2023-03-05T15:12:44;5.70;;;0.90;;
19877;SDS011;10101;52.204;9.910;2023-03-05T15:15:12;2.10;;;0.60;;
19877;SDS011;10101;52.204;9.910;2023-03-05T15:17:43;0.60;;;0.60;;
19877;SDS011;10101;52.204;9.910;2023-03-05T15:20:13;1.60;;;0.80;;